createdAt,value
2018-02-27T00:00:44.278Z,-3.25
2018-02-27T00:03:12.539Z,-3.15
2018-02-27T00:05:40.843Z,-3.07
2018-02-27T00:08:09.106Z,-3.37
2018-02-27T00:10:37.412Z,-3.28
2018-02-27T00:13:05.691Z,-3.13
2018-02-27T00:15:34.055Z,-3.20
2018-02-27T00:18:02.333Z,-3.04
2018-02-27T00:20:30.611Z,-2.93
2018-02-27T00:22:58.927Z,-2.85
2018-02-27T00:25:27.207Z,-2.70
2018-02-27T00:27:55.509Z,-2.76
2018-02-27T00:30:23.814Z,-2.74
2018-02-27T00:32:52.205Z,-2.86
2018-02-27T00:35:20.598Z,-2.75
2018-02-27T00:37:48.944Z,-2.69
2018-02-27T00:40:17.235Z,-2.45
2018-02-27T00:42:45.610Z,-2.26
2018-02-27T00:45:13.988Z,-2.13
2018-02-27T00:47:42.291Z,-2.12
2018-02-27T00:50:10.564Z,-2.36
2018-02-27T00:52:38.896Z,-2.45
2018-02-27T00:55:07.203Z,-2.31
2018-02-27T00:57:35.490Z,-2.05
2018-02-27T01:00:03.814Z,-2.27
2018-02-27T01:02:32.089Z,-2.40
2018-02-27T01:05:00.412Z,-2.32
2018-02-27T01:07:28.736Z,-2.56
2018-02-27T01:09:57.092Z,-2.63
2018-02-27T01:12:25.397Z,-2.64
2018-02-27T01:14:53.692Z,-2.61
2018-02-27T01:17:22.049Z,-2.47
2018-02-27T01:19:50.311Z,-2.63
2018-02-27T01:22:18.583Z,-2.57
2018-02-27T01:24:46.935Z,-2.51
2018-02-27T01:27:15.306Z,-2.55
2018-02-27T01:29:43.580Z,-2.44
2018-02-27T01:32:11.899Z,-2.36
2018-02-27T01:34:40.208Z,-2.21
2018-02-27T01:37:08.497Z,-2.32
2018-02-27T01:39:36.763Z,-2.35
2018-02-27T01:42:05.598Z,-2.55
2018-02-27T01:44:33.866Z,-2.55
2018-02-27T01:47:02.160Z,-2.48
2018-02-27T01:49:30.497Z,-2.49
2018-02-27T01:51:58.744Z,-2.37
2018-02-27T01:54:27.044Z,-2.50
2018-02-27T01:56:55.355Z,-2.44
2018-02-27T01:59:23.680Z,-2.38
2018-02-27T02:01:51.947Z,-2.48
2018-02-27T02:04:20.352Z,-2.40
2018-02-27T02:06:48.599Z,-2.46
2018-02-27T02:09:16.925Z,-2.37
2018-02-27T02:11:45.215Z,-2.15
2018-02-27T02:14:13.490Z,-2.30
2018-02-27T02:16:41.785Z,-2.35
2018-02-27T02:19:10.581Z,-2.33
2018-02-27T02:21:38.842Z,-2.51
2018-02-27T02:24:07.156Z,-2.52
2018-02-27T02:26:35.423Z,-2.87
2018-02-27T02:29:03.739Z,-2.70
2018-02-27T02:31:32.031Z,-2.59
2018-02-27T02:34:00.301Z,-2.35
2018-02-27T02:36:28.589Z,-2.36
2018-02-27T02:38:56.854Z,-2.37
2018-02-27T02:41:25.169Z,-2.33
2018-02-27T02:43:53.477Z,-2.40
2018-02-27T02:46:21.732Z,-2.39
2018-02-27T02:48:50.047Z,-2.57
2018-02-27T02:51:18.375Z,-2.60
2018-02-27T02:53:46.678Z,-2.75
2018-02-27T02:56:14.964Z,-2.71
2018-02-27T02:58:43.285Z,-2.70
2018-02-27T03:01:11.576Z,-2.67
2018-02-27T03:03:39.869Z,-2.62
2018-02-27T03:06:08.180Z,-2.70
2018-02-27T03:08:36.479Z,-2.74
2018-02-27T03:11:05.868Z,-2.79
2018-02-27T03:13:34.167Z,-2.77
2018-02-27T03:16:02.452Z,-3.05
2018-02-27T03:18:30.731Z,-3.08
2018-02-27T03:20:59.026Z,-2.89
2018-02-27T03:23:27.317Z,-2.88
2018-02-27T03:25:55.591Z,-2.79
2018-02-27T03:28:23.905Z,-2.67
2018-02-27T03:30:52.527Z,-2.69
2018-02-27T03:33:20.857Z,-2.62
2018-02-27T03:35:49.135Z,-2.56
2018-02-27T03:38:17.432Z,-2.57
2018-02-27T03:40:45.699Z,-2.57
2018-02-27T03:43:13.964Z,-2.60
2018-02-27T03:45:42.251Z,-2.60
2018-02-27T03:48:10.523Z,-2.46
2018-02-27T03:50:38.848Z,-2.55
2018-02-27T03:53:07.144Z,-2.79
2018-02-27T03:55:35.688Z,-2.77
2018-02-27T03:58:03.964Z,-2.78
2018-02-27T04:00:32.259Z,-2.82
2018-02-27T04:03:00.559Z,-2.82
2018-02-27T04:05:28.892Z,-2.79
2018-02-27T04:07:57.172Z,-2.81
2018-02-27T04:10:25.464Z,-2.81
2018-02-27T04:12:53.748Z,-2.72
2018-02-27T04:15:22.053Z,-2.74
2018-02-27T04:17:50.705Z,-3.03
2018-02-27T04:20:18.980Z,-3.04
2018-02-27T04:22:47.283Z,-2.95
2018-02-27T04:25:15.598Z,-2.86
2018-02-27T04:27:43.858Z,-2.87
2018-02-27T04:30:12.143Z,-3.03
2018-02-27T04:32:40.423Z,-2.88
2018-02-27T04:35:09.066Z,-2.83
2018-02-27T04:37:37.397Z,-2.95
2018-02-27T04:40:05.676Z,-2.86
2018-02-27T04:42:34.115Z,-2.94
2018-02-27T04:45:02.404Z,-3.05
2018-02-27T04:47:30.703Z,-3.06
2018-02-27T04:49:58.970Z,-3.05
2018-02-27T04:52:27.267Z,-2.95
2018-02-27T04:54:55.533Z,-2.83
2018-02-27T04:57:23.866Z,-2.84
2018-02-27T04:59:52.102Z,-2.80
2018-02-27T05:02:20.451Z,-2.81
2018-02-27T05:04:48.743Z,-3.07
2018-02-27T05:07:17.035Z,-3.17
2018-02-27T05:09:45.313Z,-2.86
2018-02-27T05:12:13.607Z,-3.11
2018-02-27T05:14:41.865Z,-3.69
2018-02-27T05:17:10.185Z,-4.07
2018-02-27T05:19:38.474Z,-4.27
2018-02-27T05:22:06.765Z,-4.37
2018-02-27T05:24:35.051Z,-4.04
2018-02-27T05:27:03.390Z,-3.97
2018-02-27T05:29:31.689Z,-3.73
2018-02-27T05:31:59.974Z,-3.57
2018-02-27T05:34:28.359Z,-3.51
2018-02-27T05:36:56.634Z,-3.67
2018-02-27T05:39:24.970Z,-3.95
2018-02-27T05:41:53.291Z,-4.09
2018-02-27T05:44:21.585Z,-4.05
2018-02-27T05:46:49.853Z,-3.85
2018-02-27T05:49:18.170Z,-3.61
2018-02-27T05:51:46.482Z,-3.37
2018-02-27T05:54:14.828Z,-3.22
2018-02-27T05:56:43.091Z,-3.24
2018-02-27T05:59:11.413Z,-3.58
2018-02-27T06:01:39.726Z,-4.01
2018-02-27T06:04:08.061Z,-4.16
2018-02-27T06:06:36.369Z,-4.30
2018-02-27T06:09:05.239Z,-4.22
2018-02-27T06:11:33.546Z,-4.16
2018-02-27T06:14:01.841Z,-4.35
2018-02-27T06:16:30.139Z,-4.55
2018-02-27T06:18:58.471Z,-4.39
2018-02-27T06:21:26.742Z,-4.54
2018-02-27T06:23:55.049Z,-4.40
2018-02-27T06:26:23.340Z,-4.42
2018-02-27T06:28:51.680Z,-4.71
2018-02-27T06:31:19.960Z,-4.77
2018-02-27T06:33:48.339Z,-4.69
2018-02-27T06:36:16.619Z,-4.57
2018-02-27T06:38:44.932Z,-4.69
2018-02-27T06:41:13.229Z,-4.42
2018-02-27T06:43:41.515Z,-4.48
2018-02-27T06:46:09.833Z,-4.40
2018-02-27T06:48:38.160Z,-4.26
2018-02-27T06:51:06.757Z,-4.37
2018-02-27T06:53:35.183Z,-4.32
2018-02-27T06:56:03.468Z,-4.81
2018-02-27T06:58:31.801Z,-4.83
2018-02-27T07:01:00.076Z,-4.92
2018-02-27T07:03:28.442Z,-5.19
2018-02-27T07:05:56.737Z,-5.23
2018-02-27T07:08:25.040Z,-5.09
2018-02-27T07:10:53.320Z,-5.02
2018-02-27T07:13:21.628Z,-4.96
2018-02-27T07:15:49.887Z,-5.15
2018-02-27T07:18:18.230Z,-5.25
2018-02-27T07:20:46.546Z,-5.30
2018-02-27T07:23:14.858Z,-5.51
2018-02-27T07:25:43.150Z,-5.40
2018-02-27T07:28:11.427Z,-5.23
2018-02-27T07:30:39.729Z,-5.54
2018-02-27T07:33:08.023Z,-5.73
2018-02-27T07:35:36.311Z,-5.61
2018-02-27T07:38:04.823Z,-5.71
2018-02-27T07:40:33.368Z,-5.45
2018-02-27T07:43:01.652Z,-5.32
2018-02-27T07:45:29.964Z,-5.10
2018-02-27T07:47:58.239Z,-5.05
2018-02-27T07:50:26.537Z,-5.10
2018-02-27T07:52:54.818Z,-5.27
2018-02-27T07:55:23.131Z,-4.91
2018-02-27T07:57:51.501Z,-4.83
2018-02-27T08:00:19.808Z,-4.87
2018-02-27T08:02:48.074Z,-4.72
2018-02-27T08:05:16.396Z,-4.55
2018-02-27T08:07:45.196Z,-4.49
2018-02-27T08:10:13.504Z,-4.91
2018-02-27T08:12:41.821Z,-4.83
2018-02-27T08:15:10.095Z,-4.78
2018-02-27T08:17:38.372Z,-5.04
2018-02-27T08:20:06.686Z,-5.10
2018-02-27T08:22:34.989Z,-5.48
2018-02-27T08:25:03.276Z,-5.12
2018-02-27T08:27:31.605Z,-4.95
2018-02-27T08:29:59.872Z,-5.15
2018-02-27T08:32:28.482Z,-5.01
2018-02-27T08:34:56.760Z,-4.98
2018-02-27T08:37:25.076Z,-4.62
2018-02-27T08:39:53.391Z,-4.40
2018-02-27T08:42:21.671Z,-5.06
2018-02-27T08:44:50.003Z,-4.89
2018-02-27T08:47:18.344Z,-4.77
2018-02-27T08:49:47.315Z,-4.58
2018-02-27T08:52:15.565Z,-4.61
2018-02-27T08:54:43.865Z,-4.30
2018-02-27T08:57:12.141Z,-3.99
2018-02-27T08:59:40.539Z,-3.79
2018-02-27T09:02:08.835Z,-3.72
2018-02-27T09:04:37.245Z,-3.64
2018-02-27T09:07:05.558Z,-3.83
2018-02-27T09:09:33.907Z,-3.70
2018-02-27T09:12:02.912Z,-3.53
2018-02-27T09:14:31.216Z,-4.16
2018-02-27T09:17:00.803Z,-4.12
2018-02-27T09:19:29.064Z,-4.41
2018-02-27T09:21:57.394Z,-4.15
2018-02-27T09:24:25.688Z,-4.00
2018-02-27T09:26:54.000Z,-3.85
2018-02-27T09:29:22.292Z,-3.62
2018-02-27T09:31:50.586Z,-3.93
2018-02-27T09:34:18.851Z,-3.82
2018-02-27T09:36:48.129Z,-3.65
2018-02-27T09:39:19.279Z,-3.68
2018-02-27T09:41:49.560Z,-3.76
2018-02-27T09:44:18.136Z,-4.08
2018-02-27T09:46:46.449Z,-4.25
2018-02-27T09:49:15.195Z,-4.10
2018-02-27T09:51:43.514Z,-4.30
2018-02-27T09:54:11.792Z,-4.28
2018-02-27T09:56:40.136Z,-3.95
2018-02-27T09:59:09.215Z,-4.07
2018-02-27T10:01:37.591Z,-3.87
2018-02-27T10:04:05.929Z,-4.22
2018-02-27T10:06:34.299Z,-4.29
2018-02-27T10:09:02.628Z,-4.05
2018-02-27T10:11:30.896Z,-4.15
2018-02-27T10:13:59.191Z,-3.68
2018-02-27T10:16:28.356Z,-3.51
2018-02-27T10:18:59.209Z,-3.26
2018-02-27T10:21:28.286Z,-3.58
2018-02-27T10:23:56.587Z,-3.65
2018-02-27T10:26:24.967Z,-3.85
2018-02-27T10:28:53.477Z,-3.69
2018-02-27T10:31:21.817Z,-3.68
2018-02-27T10:33:50.130Z,-3.76
2018-02-27T10:36:18.463Z,-3.76
2018-02-27T10:38:46.855Z,-4.28
2018-02-27T10:41:15.185Z,-4.25
2018-02-27T10:43:44.297Z,-3.90
2018-02-27T10:46:13.878Z,-3.48
2018-02-27T10:48:42.172Z,-3.03
2018-02-27T10:51:10.458Z,-2.57
2018-02-27T10:53:39.169Z,-2.97
2018-02-27T10:56:08.597Z,-2.65
2018-02-27T10:58:36.934Z,-2.38
2018-02-27T11:01:05.222Z,-2.17
2018-02-27T11:03:33.552Z,-2.09
2018-02-27T11:06:02.385Z,-2.25
2018-02-27T11:08:30.706Z,-3.02
2018-02-27T11:11:04.890Z,-3.40
2018-02-27T11:13:33.209Z,-3.66
2018-02-27T11:16:01.533Z,-3.62
2018-02-27T11:18:29.904Z,-3.33
2018-02-27T11:20:58.164Z,-2.77
2018-02-27T11:23:26.474Z,-2.23
2018-02-27T11:25:54.794Z,-2.02
2018-02-27T11:28:23.130Z,-1.67
2018-02-27T11:30:51.433Z,-1.74
2018-02-27T11:33:19.800Z,-2.69
2018-02-27T11:35:48.140Z,-2.75
2018-02-27T11:38:16.768Z,-2.47
2018-02-27T11:40:45.450Z,-2.45
2018-02-27T11:43:13.816Z,-3.00
2018-02-27T11:45:43.012Z,-2.52
2018-02-27T11:48:11.607Z,-2.09
2018-02-27T11:50:40.001Z,-2.03
2018-02-27T11:53:09.248Z,-2.87
2018-02-27T11:55:37.539Z,-3.07
2018-02-27T11:58:05.865Z,-3.07
2018-02-27T12:00:34.160Z,-2.43
2018-02-27T12:03:02.420Z,-2.80
2018-02-27T12:05:33.196Z,-2.54
2018-02-27T12:10:34.715Z,-1.92
2018-02-27T12:13:03.016Z,-2.04
2018-02-27T12:15:31.352Z,-2.02
2018-02-27T12:17:59.716Z,-1.71
2018-02-27T12:20:28.005Z,-1.95
2018-02-27T12:22:56.292Z,-2.60
2018-02-27T12:25:25.016Z,-2.46
2018-02-27T12:27:54.145Z,-2.04
2018-02-27T12:30:22.652Z,-1.91
2018-02-27T12:32:51.448Z,-1.73
2018-02-27T12:35:19.726Z,-1.48
2018-02-27T12:37:48.083Z,-1.11
2018-02-27T12:40:17.477Z,-1.78
2018-02-27T12:42:45.755Z,-2.17
2018-02-27T12:45:14.126Z,-2.44
2018-02-27T12:47:42.502Z,-2.07
2018-02-27T12:50:11.733Z,-1.92
2018-02-27T12:52:39.995Z,-1.69
2018-02-27T12:55:08.333Z,-1.44
2018-02-27T12:57:36.716Z,-1.71
2018-02-27T13:00:05.240Z,-1.68
2018-02-27T13:02:33.496Z,-1.40
2018-02-27T13:05:01.928Z,-1.22
2018-02-27T13:07:30.299Z,-1.80
2018-02-27T13:09:58.653Z,-1.45
2018-02-27T13:12:26.919Z,-1.94
2018-02-27T13:14:55.245Z,-2.10
2018-02-27T13:17:23.584Z,-2.11
2018-02-27T13:19:51.884Z,-1.39
2018-02-27T13:22:20.232Z,-1.07
2018-02-27T13:24:48.544Z,-1.35
2018-02-27T13:27:16.929Z,-1.67
2018-02-27T13:29:45.223Z,-1.52
2018-02-27T13:32:14.533Z,-1.81
2018-02-27T13:34:42.827Z,-1.49
2018-02-27T13:37:11.185Z,-1.85
2018-02-27T13:39:39.971Z,-1.57
2018-02-27T13:42:08.256Z,-1.41
2018-02-27T13:44:36.555Z,-0.73
2018-02-27T13:47:05.393Z,-0.39
2018-02-27T13:49:33.890Z,-0.23
2018-02-27T13:52:02.189Z,-0.21
2018-02-27T13:54:30.583Z,0.09
2018-02-27T13:56:59.033Z,-0.38
2018-02-27T13:59:28.252Z,0.13
2018-02-27T14:01:56.568Z,-0.39
2018-02-27T14:04:24.893Z,-0.78
2018-02-27T14:06:53.171Z,-0.37
2018-02-27T14:09:21.491Z,-0.51
2018-02-27T14:11:49.767Z,-0.35
2018-02-27T14:14:18.262Z,0.03
2018-02-27T14:16:46.525Z,-0.05
2018-02-27T14:19:14.856Z,-0.51
2018-02-27T14:21:43.133Z,-0.39
2018-02-27T14:24:12.129Z,0.27
2018-02-27T14:26:40.385Z,1.00
2018-02-27T14:29:08.771Z,0.81
2018-02-27T14:31:37.039Z,0.77
2018-02-27T14:34:05.309Z,0.57
2018-02-27T14:36:33.660Z,0.19
2018-02-27T14:39:01.964Z,0.75
2018-02-27T14:41:30.267Z,1.21
2018-02-27T14:43:58.661Z,1.62
2018-02-27T14:46:26.980Z,2.03
2018-02-27T14:48:55.246Z,2.19
2018-02-27T14:51:23.548Z,2.00
2018-02-27T14:53:51.812Z,1.10
2018-02-27T14:56:20.330Z,1.26
2018-02-27T14:58:48.625Z,1.08
2018-02-27T15:01:17.069Z,0.63
2018-02-27T15:03:45.839Z,0.76
2018-02-27T15:06:14.255Z,-0.26
2018-02-27T15:08:43.149Z,-0.45
2018-02-27T15:11:11.554Z,-0.89
2018-02-27T15:13:39.977Z,-1.02
2018-02-27T15:16:08.286Z,-0.98
2018-02-27T15:18:36.607Z,-0.86
2018-02-27T15:21:04.923Z,-0.73
2018-02-27T15:23:33.255Z,-0.64
2018-02-27T15:26:01.556Z,-0.97
2018-02-27T15:28:29.888Z,-0.82
2018-02-27T15:30:58.152Z,-1.21
2018-02-27T15:33:26.507Z,-0.85
2018-02-27T15:35:54.796Z,-0.80
2018-02-27T15:38:23.155Z,-0.74
2018-02-27T15:40:51.470Z,-0.72
2018-02-27T15:43:21.294Z,-0.55
2018-02-27T15:45:49.595Z,-0.21
2018-02-27T15:48:17.919Z,-0.53
2018-02-27T15:50:46.277Z,-0.70
2018-02-27T15:53:14.551Z,-0.78
2018-02-27T15:55:42.868Z,-0.53
2018-02-27T15:58:11.256Z,-0.43
2018-02-27T16:00:39.578Z,-0.45
2018-02-27T16:03:07.895Z,-0.64
2018-02-27T16:05:37.318Z,-0.41
2018-02-27T16:08:05.612Z,-0.39
2018-02-27T16:10:33.904Z,-0.50
2018-02-27T16:13:02.221Z,-0.60
2018-02-27T16:15:30.534Z,-0.65
2018-02-27T16:17:58.847Z,-0.63
2018-02-27T16:20:27.213Z,-0.68
2018-02-27T16:22:55.506Z,-0.55
2018-02-27T16:25:23.799Z,-0.71
2018-02-27T16:27:52.085Z,-1.07
2018-02-27T16:30:20.453Z,-0.86
2018-02-27T16:32:48.886Z,-1.30
2018-02-27T16:35:17.230Z,-1.60
2018-02-27T16:37:45.675Z,-1.44
2018-02-27T16:40:14.071Z,-1.35
2018-02-27T16:42:42.740Z,-1.05
2018-02-27T16:45:11.028Z,-0.82
2018-02-27T16:47:39.314Z,-1.05
2018-02-27T16:50:07.635Z,-1.10
2018-02-27T16:52:36.089Z,-0.94
2018-02-27T16:55:05.875Z,-0.72
2018-02-27T16:57:36.597Z,-0.53
2018-02-27T17:00:05.683Z,-0.64
2018-02-27T17:02:34.112Z,-0.57
2018-02-27T17:05:02.421Z,-0.66
2018-02-27T17:07:31.302Z,-0.64
2018-02-27T17:09:59.825Z,-0.76
2018-02-27T17:12:28.143Z,-0.77
2018-02-27T17:14:56.465Z,-0.80
2018-02-27T17:17:24.771Z,-0.83
2018-02-27T17:19:53.099Z,-0.77
2018-02-27T17:22:21.432Z,-0.69
2018-02-27T17:24:49.772Z,-0.69
2018-02-27T17:27:18.341Z,-0.72
2018-02-27T17:29:46.915Z,-0.77
2018-02-27T17:32:15.224Z,-1.01
2018-02-27T17:34:43.524Z,-1.03
2018-02-27T17:37:11.828Z,-1.13
2018-02-27T17:39:40.101Z,-1.01
2018-02-27T17:42:08.451Z,-1.35
2018-02-27T17:44:36.718Z,-1.70
2018-02-27T17:47:05.917Z,-1.54
2018-02-27T17:49:34.256Z,-1.37
2018-02-27T17:52:02.605Z,-1.53
2018-02-27T17:54:30.872Z,-1.29
2018-02-27T17:56:59.155Z,-1.21
2018-02-27T17:59:27.507Z,-1.35
2018-02-27T18:01:55.787Z,-1.67
2018-02-27T18:04:24.125Z,-1.84
2018-02-27T18:06:52.364Z,-1.92
2018-02-27T18:09:20.710Z,-1.58
2018-02-27T18:11:48.995Z,-1.61
2018-02-27T18:14:17.320Z,-1.55
2018-02-27T18:16:46.779Z,-1.43
2018-02-27T18:19:15.984Z,-1.40
2018-02-27T18:21:44.309Z,-1.45
2018-02-27T18:24:12.583Z,-1.43
2018-02-27T18:26:40.899Z,-1.42
2018-02-27T18:29:09.164Z,-1.42
2018-02-27T18:31:37.480Z,-1.46
2018-02-27T18:34:05.805Z,-1.40
2018-02-27T18:36:34.100Z,-1.63
2018-02-27T18:39:02.377Z,-1.62
2018-02-27T18:41:30.735Z,-1.45
2018-02-27T18:43:59.188Z,-1.55
2018-02-27T18:46:27.368Z,-1.61
2018-02-27T18:48:55.660Z,-1.71
2018-02-27T18:51:23.963Z,-1.80
2018-02-27T18:53:52.257Z,-1.87
2018-02-27T18:56:21.358Z,-1.77
2018-02-27T18:58:49.657Z,-1.77
2018-02-27T19:01:18.076Z,-1.85
2018-02-27T19:03:46.369Z,-1.88
2018-02-27T19:06:14.651Z,-2.00
2018-02-27T19:08:42.950Z,-2.28
2018-02-27T19:11:11.234Z,-2.33
2018-02-27T19:13:39.542Z,-2.34
2018-02-27T19:16:07.807Z,-2.47
2018-02-27T19:18:36.154Z,-2.47
2018-02-27T19:21:05.390Z,-2.38
2018-02-27T19:23:33.707Z,-2.47
2018-02-27T19:26:02.038Z,-2.42
2018-02-27T19:28:30.345Z,-2.48
2018-02-27T19:30:58.669Z,-2.56
2018-02-27T19:33:27.165Z,-2.75
2018-02-27T19:35:55.534Z,-2.72
2018-02-27T19:38:23.859Z,-2.74
2018-02-27T19:40:52.365Z,-2.71
2018-02-27T19:43:20.868Z,-2.97
2018-02-27T19:45:49.986Z,-3.11
2018-02-27T19:48:24.429Z,-3.18
2018-02-27T19:50:52.815Z,-3.47
2018-02-27T19:53:21.466Z,-3.64
2018-02-27T19:55:50.386Z,-3.40
2018-02-27T19:58:18.761Z,-3.24
2018-02-27T20:00:47.114Z,-3.17
2018-02-27T20:03:15.389Z,-3.36
2018-02-27T20:05:44.036Z,-3.26
2018-02-27T20:08:12.329Z,-3.34
2018-02-27T20:10:40.625Z,-3.22
2018-02-27T20:13:08.932Z,-3.15
2018-02-27T20:15:37.213Z,-3.25
2018-02-27T20:18:10.468Z,-3.41
2018-02-27T20:20:38.757Z,-3.56
2018-02-27T20:23:12.671Z,-3.57
2018-02-27T20:25:40.955Z,-3.45
2018-02-27T20:31:10.367Z,-3.73
2018-02-27T20:33:38.685Z,-3.80
2018-02-27T20:36:06.984Z,-3.92
2018-02-27T20:38:40.921Z,-3.98
2018-02-27T20:41:09.237Z,-3.84
2018-02-27T20:43:37.648Z,-3.87
2018-02-27T20:46:05.906Z,-4.33
2018-02-27T20:48:34.433Z,-4.49
2018-02-27T20:51:04.260Z,-4.38
2018-02-27T20:53:35.241Z,-4.63
2018-02-27T20:56:06.136Z,-4.39
2018-02-27T20:58:34.498Z,-4.27
2018-02-27T21:01:03.311Z,-4.17
2018-02-27T21:03:31.575Z,-4.16
2018-02-27T21:05:59.930Z,-4.58
2018-02-27T21:08:28.227Z,-4.13
2018-02-27T21:10:57.561Z,-4.02
2018-02-27T21:13:25.841Z,-4.17
2018-02-27T21:15:54.153Z,-4.21
2018-02-27T21:18:22.436Z,-4.52
2018-02-27T21:20:50.734Z,-4.58
2018-02-27T21:23:19.022Z,-4.72
2018-02-27T21:25:47.329Z,-4.83
2018-02-27T21:28:15.602Z,-4.93
2018-02-27T21:30:43.891Z,-5.37
2018-02-27T21:33:12.174Z,-5.05
2018-02-27T21:35:40.475Z,-4.96
2018-02-27T21:38:08.759Z,-5.01
2018-02-27T21:40:37.041Z,-5.11
2018-02-27T21:43:05.335Z,-5.11
2018-02-27T21:45:33.647Z,-5.02
2018-02-27T21:48:01.973Z,-4.75
2018-02-27T21:50:30.292Z,-4.74
2018-02-27T21:52:58.564Z,-4.94
2018-02-27T21:55:26.879Z,-5.34
2018-02-27T21:57:55.162Z,-5.27
2018-02-27T22:00:23.432Z,-5.22
2018-02-27T22:02:51.735Z,-4.99
2018-02-27T22:05:20.037Z,-4.94
2018-02-27T22:07:48.318Z,-5.03
2018-02-27T22:10:16.607Z,-5.53
2018-02-27T22:12:44.894Z,-5.47
2018-02-27T22:15:13.191Z,-5.37
2018-02-27T22:17:41.468Z,-5.42
2018-02-27T22:20:09.772Z,-5.69
2018-02-27T22:22:38.251Z,-6.01
2018-02-27T22:25:06.558Z,-5.82
2018-02-27T22:27:34.843Z,-5.77
2018-02-27T22:30:03.138Z,-5.78
2018-02-27T22:32:31.394Z,-6.06
2018-02-27T22:34:59.710Z,-6.32
2018-02-27T22:37:27.982Z,-6.34
2018-02-27T22:39:56.307Z,-6.08
2018-02-27T22:42:24.573Z,-5.81
2018-02-27T22:44:52.895Z,-5.94
2018-02-27T22:47:21.191Z,-5.77
2018-02-27T22:49:49.504Z,-5.61
2018-02-27T22:52:17.837Z,-5.61
2018-02-27T22:54:46.118Z,-5.77
2018-02-27T22:57:14.414Z,-5.99
2018-02-27T22:59:43.331Z,-6.08
2018-02-27T23:02:11.591Z,-6.19
2018-02-27T23:04:39.900Z,-5.99
2018-02-27T23:07:08.188Z,-5.79
2018-02-27T23:09:36.468Z,-5.86
2018-02-27T23:12:04.770Z,-5.87
2018-02-27T23:14:33.068Z,-5.97
2018-02-27T23:17:01.593Z,-5.99
2018-02-27T23:19:29.898Z,-6.09
2018-02-27T23:21:58.174Z,-6.32
2018-02-27T23:24:31.885Z,-6.12
2018-02-27T23:27:02.286Z,-6.06
2018-02-27T23:29:30.701Z,-6.07
2018-02-27T23:32:01.289Z,-6.11
2018-02-27T23:34:37.387Z,-6.17
2018-02-27T23:37:05.650Z,-6.03
2018-02-27T23:39:33.936Z,-6.04
2018-02-27T23:42:02.212Z,-5.97
2018-02-27T23:44:30.528Z,-5.93
2018-02-27T23:46:58.996Z,-6.14
2018-02-27T23:49:27.310Z,-6.39
2018-02-27T23:51:55.596Z,-6.53
2018-02-27T23:54:23.893Z,-6.59
2018-02-27T23:56:52.171Z,-6.62
2018-02-27T23:59:20.512Z,-6.56
